Paw Creek, North Carolina
Current Conditions -  °F | °C
As of 3:52 PM on Wednesday 17 Dec 2014 (Local Time) from KCLT Reporting Station
Scattered Clouds Scattered Clouds  
Wind Chill: 59°   Ceiling: Unl
Heat Index: 59°   Visibility: 10mi
Dew Point: 32°   Wind: 7mph
Humidity: 36%   Direction: 300°WNW
Pressure: 30.06"   Gusts: NA
Location:  35.28°N, 80.94°W
Report Text: KCLT 172052Z 30006KT 10SM SCT250 15/00 A3006 RMK AO2 SLP177 T01500000 55011 $
Loading
Personal Weather Stations






























Interactive Weather Map New forecast layout! Learn more

10-Day Weather Forecast

Advertisements
Track Severe Weather on mobile